createdAt,value
2023-03-05T00:00:34.238Z,44.78
2023-03-05T00:03:03.276Z,44.83
2023-03-05T00:05:30.943Z,44.77
2023-03-05T00:07:58.681Z,45.05
2023-03-05T00:10:26.401Z,44.90
2023-03-05T00:12:54.080Z,44.71
2023-03-05T00:15:21.761Z,44.84
2023-03-05T00:17:49.452Z,44.41
2023-03-05T00:20:18.905Z,45.03
2023-03-05T00:22:46.611Z,45.12
2023-03-05T00:25:14.560Z,45.02
2023-03-05T00:27:42.431Z,44.60
2023-03-05T00:30:11.354Z,44.57
2023-03-05T00:32:39.056Z,44.76
2023-03-05T00:35:07.393Z,45.15
2023-03-05T00:37:36.422Z,45.21
2023-03-05T00:40:04.426Z,45.15
2023-03-05T00:42:33.591Z,45.13
2023-03-05T00:45:01.393Z,45.01
2023-03-05T00:47:29.091Z,44.97
2023-03-05T00:49:56.776Z,44.90
2023-03-05T00:52:24.490Z,45.09
2023-03-05T00:54:53.530Z,44.77
2023-03-05T00:57:21.202Z,45.25
2023-03-05T00:59:49.110Z,45.29
2023-03-05T01:02:16.863Z,45.29
2023-03-05T01:04:47.092Z,45.00
2023-03-05T01:07:14.779Z,45.02
2023-03-05T01:09:42.481Z,45.03
2023-03-05T01:12:11.624Z,45.38
2023-03-05T01:14:39.313Z,44.99
2023-03-05T01:17:07.141Z,45.11
2023-03-05T01:19:34.829Z,45.40
2023-03-05T01:22:02.573Z,44.92
2023-03-05T01:24:31.347Z,45.18
2023-03-05T01:26:59.164Z,45.11
2023-03-05T01:29:28.282Z,45.00
2023-03-05T01:31:56.077Z,45.42
2023-03-05T01:34:23.746Z,44.96
2023-03-05T01:36:51.436Z,44.86
2023-03-05T01:39:19.121Z,45.30
2023-03-05T01:41:46.835Z,45.36
2023-03-05T01:44:22.313Z,45.17
2023-03-05T01:46:51.404Z,45.18
2023-03-05T01:49:21.908Z,45.19
2023-03-05T01:52:02.130Z,44.91
2023-03-05T01:54:33.522Z,44.94
2023-03-05T01:57:03.030Z,44.85
2023-03-05T01:59:30.789Z,45.17
2023-03-05T02:02:00.469Z,44.76
2023-03-05T02:04:31.728Z,44.65
2023-03-05T02:06:59.460Z,44.50
2023-03-05T02:09:28.706Z,44.86
2023-03-05T02:11:56.536Z,45.33
2023-03-05T02:14:24.412Z,44.95
2023-03-05T02:16:52.491Z,45.37
2023-03-05T02:19:21.535Z,45.01
2023-03-05T02:21:50.876Z,45.27
2023-03-05T02:24:19.357Z,45.03
2023-03-05T02:26:47.064Z,45.14
2023-03-05T02:29:17.297Z,44.94
2023-03-05T02:31:45.077Z,45.22
2023-03-05T02:34:12.825Z,45.17
2023-03-05T02:36:40.538Z,44.98
2023-03-05T02:39:10.631Z,45.15
2023-03-05T02:41:38.319Z,44.95
2023-03-05T02:44:06.312Z,45.08
2023-03-05T02:46:34.038Z,45.16
2023-03-05T02:49:01.758Z,45.11
2023-03-05T02:51:29.436Z,45.31
2023-03-05T02:53:57.132Z,44.93
2023-03-05T02:56:26.183Z,44.98
2023-03-05T02:58:53.880Z,45.17
2023-03-05T03:01:21.702Z,45.12
2023-03-05T03:03:49.467Z,44.94
2023-03-05T03:06:17.160Z,45.31
2023-03-05T03:08:44.905Z,45.37
2023-03-05T03:11:13.320Z,45.05
2023-03-05T03:13:42.417Z,44.87
2023-03-05T03:16:11.449Z,45.17
2023-03-05T03:18:39.133Z,44.98
2023-03-05T03:21:07.255Z,44.86
2023-03-05T03:23:35.003Z,45.14
2023-03-05T03:26:02.683Z,45.16
2023-03-05T03:28:30.375Z,44.83
2023-03-05T03:30:59.467Z,44.90
2023-03-05T03:33:27.261Z,44.95
2023-03-05T03:35:55.000Z,45.13
2023-03-05T03:38:22.731Z,45.05
2023-03-05T03:40:50.440Z,44.94
2023-03-05T03:43:18.108Z,44.88
2023-03-05T03:45:45.994Z,45.08
2023-03-05T03:48:15.167Z,44.61
2023-03-05T03:50:43.093Z,44.87
2023-03-05T03:53:14.092Z,44.21
2023-03-05T03:55:42.410Z,44.48
2023-03-05T03:58:10.114Z,44.61
2023-03-05T04:00:37.840Z,44.70
2023-03-05T04:03:05.575Z,44.52
2023-03-05T04:05:34.668Z,44.25
2023-03-05T04:08:03.456Z,44.30
2023-03-05T04:10:31.180Z,44.35
2023-03-05T04:12:58.851Z,44.72
2023-03-05T04:15:26.572Z,44.63
2023-03-05T04:17:54.245Z,44.61
2023-03-05T04:20:21.956Z,44.72
2023-03-05T04:22:51.136Z,45.19
2023-03-05T04:25:18.838Z,44.90
2023-03-05T04:27:46.524Z,45.03
2023-03-05T04:30:14.829Z,45.00
2023-03-05T04:32:42.660Z,45.12
2023-03-05T04:35:10.586Z,44.93
2023-03-05T04:37:38.285Z,44.79
2023-03-05T04:40:10.344Z,44.67
2023-03-05T04:42:38.046Z,44.77
2023-03-05T04:45:06.748Z,44.89
2023-03-05T04:47:34.443Z,44.96
2023-03-05T04:50:02.138Z,45.02
2023-03-05T04:52:29.863Z,45.04
2023-03-05T04:54:57.523Z,45.28
2023-03-05T04:57:26.549Z,45.28
2023-03-05T04:59:54.361Z,44.89
2023-03-05T05:02:22.124Z,44.84
2023-03-05T05:04:49.804Z,45.02
2023-03-05T05:07:17.480Z,44.82
2023-03-05T05:09:45.213Z,44.81
2023-03-05T05:12:12.900Z,45.16
2023-03-05T05:14:41.981Z,45.02
2023-03-05T05:17:10.361Z,44.96
2023-03-05T05:19:38.148Z,44.88
2023-03-05T05:22:05.948Z,45.08
2023-03-05T05:24:33.637Z,44.76
2023-03-05T05:27:01.386Z,44.88
2023-03-05T05:29:29.118Z,44.71
2023-03-05T05:31:58.190Z,44.70
2023-03-05T05:34:26.115Z,44.63
2023-03-05T05:36:53.901Z,44.80
2023-03-05T05:39:21.625Z,44.89
2023-03-05T05:41:51.444Z,44.71
2023-03-05T05:44:19.146Z,44.23
2023-03-05T05:46:46.888Z,44.50
2023-03-05T05:49:15.938Z,44.62
2023-03-05T05:51:43.608Z,44.67
2023-03-05T05:54:13.650Z,44.75
2023-03-05T05:56:41.444Z,44.50
2023-03-05T05:59:09.239Z,44.20
2023-03-05T06:01:36.995Z,44.30
2023-03-05T06:04:04.919Z,44.85
2023-03-05T06:06:34.868Z,44.63
2023-03-05T06:09:02.745Z,44.68
2023-03-05T06:11:30.452Z,44.62
2023-03-05T06:13:58.132Z,44.46
2023-03-05T06:16:25.911Z,44.79
2023-03-05T06:18:53.787Z,44.88
2023-03-05T06:21:22.157Z,44.97
2023-03-05T06:23:51.526Z,44.73
2023-03-05T06:26:20.159Z,44.56
2023-03-05T06:28:47.842Z,44.60
2023-03-05T06:31:16.747Z,44.81
2023-03-05T06:33:44.547Z,44.94
2023-03-05T06:36:13.044Z,44.97
2023-03-05T06:38:40.740Z,44.81
2023-03-05T06:41:11.508Z,44.63
2023-03-05T06:43:39.975Z,44.76
2023-03-05T06:46:08.581Z,44.61
2023-03-05T06:48:36.279Z,44.82
2023-03-05T06:51:04.193Z,44.71
2023-03-05T06:53:31.883Z,44.75
2023-03-05T06:56:01.882Z,44.53
2023-03-05T06:58:30.911Z,44.44
2023-03-05T07:00:58.620Z,44.48
2023-03-05T07:03:26.284Z,44.60
2023-03-05T07:05:53.965Z,44.67
2023-03-05T07:08:21.644Z,44.38
2023-03-05T07:10:49.330Z,44.36
2023-03-05T07:13:17.021Z,44.72
2023-03-05T07:15:46.114Z,44.27
2023-03-05T07:18:13.816Z,44.30
2023-03-05T07:20:41.623Z,44.81
2023-03-05T07:23:09.285Z,44.42
2023-03-05T07:25:37.076Z,44.33
2023-03-05T07:28:05.382Z,44.48
2023-03-05T07:30:33.074Z,44.61
2023-03-05T07:33:02.611Z,44.18
2023-03-05T07:35:30.305Z,44.45
2023-03-05T07:37:58.032Z,44.22
2023-03-05T07:40:25.738Z,44.63
2023-03-05T07:42:54.497Z,44.45
2023-03-05T07:45:22.159Z,44.54
2023-03-05T07:47:52.450Z,44.35
2023-03-05T07:50:21.604Z,44.45
2023-03-05T07:52:49.329Z,44.53
2023-03-05T07:55:17.123Z,44.46
2023-03-05T07:57:44.791Z,44.42
2023-03-05T08:00:13.722Z,44.59
2023-03-05T08:02:41.469Z,44.51
2023-03-05T08:05:09.388Z,44.31
2023-03-05T08:07:38.457Z,44.25
2023-03-05T08:10:07.460Z,44.25
2023-03-05T08:12:35.452Z,44.48
2023-03-05T08:15:03.289Z,44.38
2023-03-05T08:17:30.942Z,44.41
2023-03-05T08:20:00.167Z,44.38
2023-03-05T08:22:27.978Z,44.11
2023-03-05T08:24:57.025Z,43.97
2023-03-05T08:27:24.720Z,44.12
2023-03-05T08:29:52.388Z,43.95
2023-03-05T08:32:20.095Z,44.22
2023-03-05T08:34:47.838Z,44.35
2023-03-05T08:37:15.505Z,43.86
2023-03-05T08:39:43.208Z,43.89
2023-03-05T08:42:12.291Z,43.90
2023-03-05T08:44:39.957Z,43.98
2023-03-05T08:47:07.880Z,43.55
2023-03-05T08:49:35.655Z,43.63
2023-03-05T08:52:03.339Z,43.93
2023-03-05T08:54:30.995Z,44.10
2023-03-05T08:56:58.676Z,43.71
2023-03-05T08:59:27.792Z,43.43
2023-03-05T09:01:55.514Z,43.69
2023-03-05T09:04:23.230Z,43.59
2023-03-05T09:06:50.912Z,43.69
2023-03-05T09:09:20.672Z,43.50
2023-03-05T09:11:48.343Z,43.84
2023-03-05T09:14:15.996Z,43.80
2023-03-05T09:16:45.058Z,43.81
2023-03-05T09:19:15.053Z,43.60
2023-03-05T09:21:42.939Z,43.38
2023-03-05T09:24:11.707Z,43.44
2023-03-05T09:26:40.961Z,43.51
2023-03-05T09:29:08.817Z,43.47
2023-03-05T09:31:36.807Z,43.68
2023-03-05T09:34:05.993Z,43.80
2023-03-05T09:36:33.952Z,43.81
2023-03-05T09:39:01.639Z,43.92
2023-03-05T09:41:34.406Z,44.19
2023-03-05T09:44:08.841Z,44.07
2023-03-05T09:46:43.824Z,44.11
2023-03-05T09:49:18.693Z,43.72
2023-03-05T09:51:47.252Z,43.88
2023-03-05T09:54:15.973Z,43.85
2023-03-05T09:56:44.830Z,43.92
2023-03-05T09:59:22.191Z,43.89
2023-03-05T10:01:49.864Z,43.44
2023-03-05T10:04:20.029Z,43.43
2023-03-05T10:06:50.116Z,43.53
2023-03-05T10:09:22.151Z,43.30
2023-03-05T10:11:52.491Z,43.28
2023-03-05T10:14:25.302Z,43.20
2023-03-05T10:17:19.433Z,43.23
2023-03-05T10:20:02.934Z,43.20
2023-03-05T10:22:31.686Z,42.98
2023-03-05T10:25:11.114Z,43.30
2023-03-05T10:27:44.008Z,43.36
2023-03-05T10:30:23.860Z,43.30
2023-03-05T10:32:53.752Z,43.01
2023-03-05T10:35:33.586Z,43.30
2023-03-05T10:38:37.190Z,42.82
2023-03-05T10:41:08.470Z,43.14
2023-03-05T10:43:37.493Z,42.86
2023-03-05T10:46:05.508Z,43.04
2023-03-05T10:48:36.357Z,42.76
2023-03-05T10:51:06.147Z,42.97
2023-03-05T10:53:34.744Z,43.28
2023-03-05T10:56:03.576Z,43.17
2023-03-05T10:58:31.236Z,42.84
2023-03-05T11:01:04.103Z,43.05
2023-03-05T11:03:51.346Z,43.10
2023-03-05T11:06:30.007Z,42.81
2023-03-05T11:08:58.238Z,43.36
2023-03-05T11:11:25.959Z,43.09
2023-03-05T11:13:55.889Z,42.66
2023-03-05T11:16:24.806Z,42.05
2023-03-05T11:18:54.887Z,42.28
2023-03-05T11:21:27.576Z,42.68
2023-03-05T11:24:14.851Z,42.54
2023-03-05T11:26:50.157Z,42.88
2023-03-05T11:29:20.357Z,42.21
2023-03-05T11:31:48.032Z,42.43
2023-03-05T11:34:30.241Z,42.77
2023-03-05T11:37:03.698Z,42.87
2023-03-05T11:39:35.240Z,42.22
2023-03-05T11:42:04.098Z,42.46
2023-03-05T11:44:34.452Z,42.51
2023-03-05T11:47:03.476Z,42.79
2023-03-05T11:49:32.892Z,42.23
2023-03-05T11:52:06.855Z,42.84
2023-03-05T11:54:40.207Z,42.69
2023-03-05T11:57:10.618Z,42.60
2023-03-05T11:59:40.239Z,42.58
2023-03-05T12:02:19.347Z,42.41
2023-03-05T12:04:47.320Z,43.07
2023-03-05T12:07:16.341Z,42.65
2023-03-05T12:09:47.557Z,42.70
2023-03-05T12:12:23.856Z,42.82
2023-03-05T12:14:52.809Z,42.91
2023-03-05T12:17:22.743Z,42.79
2023-03-05T12:19:52.905Z,43.15
2023-03-05T12:22:21.889Z,42.90
2023-03-05T12:24:51.203Z,42.80
2023-03-05T12:27:33.808Z,42.93
2023-03-05T12:30:02.466Z,42.82
2023-03-05T12:33:03.312Z,42.84
2023-03-05T12:35:35.852Z,43.35
2023-03-05T12:38:28.418Z,42.88
2023-03-05T12:41:35.651Z,42.72
2023-03-05T12:44:20.676Z,42.81
2023-03-05T12:47:17.654Z,42.98
2023-03-05T12:49:46.451Z,42.61
2023-03-05T12:52:20.114Z,42.75
2023-03-05T12:54:51.823Z,43.08
2023-03-05T12:57:22.504Z,43.00
2023-03-05T12:59:52.450Z,42.93
2023-03-05T13:02:22.986Z,42.70
2023-03-05T13:04:53.046Z,43.11
2023-03-05T13:07:20.771Z,43.21
2023-03-05T13:09:55.259Z,43.41
2023-03-05T13:12:24.543Z,42.63
2023-03-05T13:14:58.467Z,42.95
2023-03-05T13:17:34.619Z,43.07
2023-03-05T13:20:06.037Z,42.75
2023-03-05T13:22:33.855Z,43.06
2023-03-05T13:25:14.733Z,42.69
2023-03-05T13:27:43.893Z,42.86
2023-03-05T13:30:24.807Z,42.84
2023-03-05T13:32:53.428Z,42.73
2023-03-05T13:35:22.455Z,42.53
2023-03-05T13:37:50.369Z,42.78
2023-03-05T13:40:23.633Z,42.31
2023-03-05T13:42:53.232Z,42.83
2023-03-05T13:45:26.549Z,42.94
2023-03-05T13:47:56.155Z,42.32
2023-03-05T13:50:25.637Z,42.31
2023-03-05T13:52:53.435Z,42.65
2023-03-05T13:55:21.124Z,42.96
2023-03-05T13:57:51.027Z,42.47
2023-03-05T14:00:31.781Z,42.33
2023-03-05T14:03:01.363Z,42.76
2023-03-05T14:05:29.166Z,42.74
2023-03-05T14:07:56.858Z,42.52
2023-03-05T14:10:28.981Z,42.65
2023-03-05T14:12:56.687Z,43.02
2023-03-05T14:15:25.685Z,43.22
2023-03-05T14:17:54.732Z,43.01
2023-03-05T14:20:24.256Z,42.40
2023-03-05T14:22:53.168Z,42.91
2023-03-05T14:25:28.763Z,43.11
2023-03-05T14:27:56.498Z,42.59
2023-03-05T14:30:24.692Z,42.79
2023-03-05T14:32:54.223Z,42.86
2023-03-05T14:35:22.905Z,43.22
2023-03-05T14:37:51.220Z,43.24
2023-03-05T14:40:20.657Z,43.22
2023-03-05T14:42:52.554Z,42.63
2023-03-05T14:45:21.742Z,43.13
2023-03-05T14:47:50.542Z,43.17
2023-03-05T14:50:20.780Z,42.84
2023-03-05T14:52:48.963Z,43.08
2023-03-05T14:55:16.990Z,43.35
2023-03-05T14:57:44.652Z,42.94
2023-03-05T15:00:16.924Z,43.16
2023-03-05T15:02:44.715Z,43.27
2023-03-05T15:05:12.516Z,43.30
2023-03-05T15:07:41.628Z,42.99
2023-03-05T15:10:09.697Z,43.34
2023-03-05T15:12:37.354Z,43.20
2023-03-05T15:15:06.482Z,43.32
2023-03-05T15:17:35.840Z,43.76
2023-03-05T15:20:06.627Z,43.05
2023-03-05T15:22:34.299Z,43.24
2023-03-05T15:25:03.366Z,43.12
2023-03-05T15:27:31.059Z,43.44
2023-03-05T15:29:59.480Z,43.49
2023-03-05T15:32:28.005Z,43.54
2023-03-05T15:34:55.786Z,43.12
2023-03-05T15:37:23.478Z,43.59
2023-03-05T15:39:51.225Z,43.43
2023-03-05T15:42:20.288Z,43.34
2023-03-05T15:44:47.995Z,43.48
2023-03-05T15:47:17.167Z,43.63
2023-03-05T15:49:44.846Z,43.94
2023-03-05T15:52:12.518Z,43.63
2023-03-05T15:54:40.197Z,43.27
2023-03-05T15:57:09.897Z,43.40
2023-03-05T15:59:38.947Z,43.30
2023-03-05T16:02:06.674Z,43.47
2023-03-05T16:04:34.342Z,43.57
2023-03-05T16:07:02.970Z,43.71
2023-03-05T16:09:32.507Z,43.37
2023-03-05T16:12:00.166Z,43.44
2023-03-05T16:14:28.612Z,43.49
2023-03-05T16:16:57.621Z,43.83
2023-03-05T16:19:25.277Z,43.59
2023-03-05T16:21:52.939Z,43.33
2023-03-05T16:24:20.640Z,43.43
2023-03-05T16:26:48.299Z,43.66
2023-03-05T16:29:15.999Z,43.66
2023-03-05T16:31:45.313Z,43.54
2023-03-05T16:34:16.125Z,43.60
2023-03-05T16:36:47.916Z,43.88
2023-03-05T16:39:15.643Z,43.61
2023-03-05T16:41:43.356Z,43.69
2023-03-05T16:44:11.034Z,43.74
2023-03-05T16:46:38.855Z,43.78
2023-03-05T16:49:07.129Z,43.51
2023-03-05T16:51:36.164Z,43.99
2023-03-05T16:54:03.936Z,43.99
2023-03-05T16:56:31.605Z,44.07
2023-03-05T16:58:59.278Z,43.84
2023-03-05T17:01:27.012Z,43.94
2023-03-05T17:03:55.024Z,43.83
2023-03-05T17:06:23.576Z,43.81
2023-03-05T17:08:52.882Z,43.88
2023-03-05T17:11:20.963Z,44.04
2023-03-05T17:13:49.184Z,43.99
2023-03-05T17:16:17.410Z,44.25
2023-03-05T17:18:45.128Z,44.11
2023-03-05T17:21:12.902Z,43.95
2023-03-05T17:23:40.755Z,44.27
2023-03-05T17:26:10.640Z,44.02
2023-03-05T17:28:38.440Z,43.88
2023-03-05T17:31:06.489Z,43.77
2023-03-05T17:33:34.205Z,43.72
2023-03-05T17:36:01.965Z,43.73
2023-03-05T17:38:29.629Z,43.74
2023-03-05T17:40:57.326Z,43.87
2023-03-05T17:43:26.374Z,43.82
2023-03-05T17:45:59.416Z,44.18
2023-03-05T17:48:27.161Z,44.12
2023-03-05T17:50:54.875Z,44.12
2023-03-05T17:53:22.646Z,43.79
2023-03-05T17:55:50.440Z,43.79
2023-03-05T17:58:18.127Z,43.94
2023-03-05T18:00:47.253Z,44.13
2023-03-05T18:03:14.932Z,43.71
2023-03-05T18:05:42.617Z,43.73
2023-03-05T18:08:10.274Z,43.73
2023-03-05T18:10:38.028Z,43.98
2023-03-05T18:13:05.676Z,43.66
2023-03-05T18:15:33.335Z,43.99
2023-03-05T18:18:02.353Z,44.10
2023-03-05T18:20:30.910Z,44.03
2023-03-05T18:22:58.772Z,44.11
2023-03-05T18:25:30.784Z,44.13
2023-03-05T18:27:59.227Z,43.89
2023-03-05T18:30:27.005Z,44.10
2023-03-05T18:32:55.192Z,44.06
2023-03-05T18:35:24.486Z,44.04
2023-03-05T18:37:52.211Z,44.22
2023-03-05T18:40:21.436Z,44.00
2023-03-05T18:42:49.659Z,43.82
2023-03-05T18:45:17.800Z,43.77
2023-03-05T18:47:46.850Z,43.85
2023-03-05T18:50:16.810Z,43.77
2023-03-05T18:52:45.875Z,43.77
2023-03-05T18:55:13.932Z,43.78
2023-03-05T18:57:41.616Z,43.95
2023-03-05T19:00:10.568Z,43.99
2023-03-05T19:02:38.255Z,44.08
2023-03-05T19:05:06.332Z,43.64
2023-03-05T19:07:35.227Z,44.02
2023-03-05T19:10:07.396Z,44.15
2023-03-05T19:12:38.237Z,44.16
2023-03-05T19:15:07.110Z,43.96
2023-03-05T19:17:34.790Z,44.14
2023-03-05T19:20:06.311Z,43.85
2023-03-05T19:22:34.040Z,44.16
2023-03-05T19:25:02.059Z,43.89
2023-03-05T19:27:31.082Z,44.06
2023-03-05T19:30:00.066Z,43.98
2023-03-05T19:32:27.824Z,44.16
2023-03-05T19:34:56.257Z,44.23
2023-03-05T19:37:23.978Z,43.92
2023-03-05T19:39:51.644Z,43.99
2023-03-05T19:42:19.346Z,44.09
2023-03-05T19:44:48.462Z,43.81
2023-03-05T19:47:16.125Z,44.11
2023-03-05T19:49:43.796Z,43.87
2023-03-05T19:52:11.462Z,44.27
2023-03-05T19:54:39.148Z,44.29
2023-03-05T19:57:06.852Z,44.23
2023-03-05T19:59:34.498Z,43.90
2023-03-05T20:02:03.589Z,43.96
2023-03-05T20:04:31.308Z,43.92
2023-03-05T20:06:59.206Z,44.12
2023-03-05T20:09:26.906Z,43.93
2023-03-05T20:11:56.782Z,44.20
2023-03-05T20:14:24.456Z,44.14
2023-03-05T20:16:52.138Z,43.94
2023-03-05T20:19:21.840Z,44.29
2023-03-05T20:21:49.536Z,44.05
2023-03-05T20:24:18.158Z,44.04
2023-03-05T20:26:46.413Z,44.45
2023-03-05T20:29:17.482Z,44.08
2023-03-05T20:31:45.770Z,44.24
2023-03-05T20:34:14.490Z,44.45
2023-03-05T20:36:43.579Z,44.06
2023-03-05T20:39:11.291Z,44.33
2023-03-05T20:41:39.760Z,43.99
2023-03-05T20:44:07.485Z,44.34
2023-03-05T20:46:36.300Z,44.24
2023-03-05T20:49:04.544Z,44.23
2023-03-05T20:51:33.830Z,44.34
2023-03-05T20:54:04.007Z,43.88
2023-03-05T20:56:32.402Z,44.29
2023-03-05T20:59:01.082Z,44.36
2023-03-05T21:01:28.989Z,44.42
2023-03-05T21:03:58.237Z,44.12
2023-03-05T21:06:26.054Z,44.00
2023-03-05T21:08:53.763Z,44.43
2023-03-05T21:11:22.924Z,44.43
2023-03-05T21:13:50.684Z,44.10
2023-03-05T21:16:19.294Z,44.15
2023-03-05T21:18:47.120Z,44.25
2023-03-05T21:21:14.800Z,44.18
2023-03-05T21:23:42.556Z,44.24
2023-03-05T21:26:10.344Z,44.34
2023-03-05T21:28:39.988Z,44.37
2023-03-05T21:31:08.779Z,44.19
2023-03-05T21:33:36.515Z,44.06
2023-03-05T21:36:05.062Z,44.15
2023-03-05T21:38:34.062Z,44.31
2023-03-05T21:41:02.265Z,44.46
2023-03-05T21:43:31.090Z,44.31
2023-03-05T21:46:00.688Z,44.04
2023-03-05T21:48:28.386Z,44.19
2023-03-05T21:50:56.117Z,44.21
2023-03-05T21:53:23.895Z,43.99
2023-03-05T21:56:25.422Z,44.40
2023-03-05T21:58:53.328Z,44.17
2023-03-05T22:01:22.500Z,44.14
2023-03-05T22:03:50.572Z,44.21
2023-03-05T22:06:18.854Z,43.91
2023-03-05T22:08:47.065Z,44.10
2023-03-05T22:11:15.974Z,44.24
2023-03-05T22:13:43.672Z,44.18
2023-03-05T22:16:11.491Z,44.48
2023-03-05T22:18:40.503Z,44.28
2023-03-05T22:21:18.063Z,44.41
2023-03-05T22:23:45.727Z,44.16
2023-03-05T22:26:13.399Z,44.25
2023-03-05T22:28:42.413Z,44.38
2023-03-05T22:31:10.562Z,44.43
2023-03-05T22:33:38.340Z,44.15
2023-03-05T22:36:12.078Z,44.19
2023-03-05T22:38:39.758Z,44.41
2023-03-05T22:41:08.489Z,44.28
2023-03-05T22:43:36.180Z,44.33
2023-03-05T22:46:10.229Z,44.09
2023-03-05T22:48:37.892Z,44.29
2023-03-05T22:51:05.715Z,44.45
2023-03-05T22:53:34.950Z,44.25
2023-03-05T22:56:06.714Z,44.17
2023-03-05T22:58:34.376Z,44.28
2023-03-05T23:01:02.053Z,44.17
2023-03-05T23:03:30.178Z,44.20
2023-03-05T23:05:57.879Z,44.33
2023-03-05T23:08:25.541Z,44.28
2023-03-05T23:10:54.585Z,44.54
2023-03-05T23:13:22.411Z,44.38
2023-03-05T23:15:50.117Z,44.41
2023-03-05T23:18:17.878Z,44.07
2023-03-05T23:20:45.548Z,44.31
2023-03-05T23:23:13.503Z,44.19
2023-03-05T23:25:41.388Z,44.45
2023-03-05T23:28:10.400Z,44.06
2023-03-05T23:30:39.397Z,43.98
2023-03-05T23:33:07.944Z,44.17
2023-03-05T23:35:36.939Z,44.23
2023-03-05T23:38:05.738Z,44.46
2023-03-05T23:40:34.686Z,44.32
2023-03-05T23:43:02.395Z,44.64
2023-03-05T23:45:31.551Z,44.17
2023-03-05T23:47:59.334Z,44.57
2023-03-05T23:50:28.214Z,44.44
2023-03-05T23:52:55.976Z,44.22
2023-03-05T23:55:24.988Z,44.49
2023-03-05T23:57:52.763Z,44.50
